Cidade Ocidental, Brazil
Current Conditions -  °F | °C
As of 4:00 AM on Sunday 26 Oct 2014 (Local Time) from SBBR Reporting Station
Light Rain Light Rain  
Wind Chill: 68°   Ceiling: 8000
Heat Index: 68°   Visibility: 5mi
Dew Point: 61°   Wind: 3mph
Humidity: 78%   Direction: 160°SSE
Pressure: 30"   Gusts: NA
Location:  16.08°S, 47.93°W
Report Text: SBBR 260600Z 16003KT 8000 -RA FEW008 BKN080 20/16 Q1016
Loading
Personal Weather Stations






























Interactive Weather Map
Tropical Storm Tracking
New forecast layout! Learn more

10-Day Weather Forecast

Advertisements
Track Severe Weather on mobile